Eldersburg, Maryland
Current Conditions -  °F | °C
As of 3:00 PM on Monday 22 Dec 2014 (Local Time) from KDMW Reporting Station
Drizzle Drizzle  
Wind Chill: 34°   Ceiling: 4600
Heat Index: 34°   Visibility: 2.5mi
Dew Point: 28°   Wind: 0mph
Humidity: 81%   Direction: NA
Pressure: 30.16"   Gusts: NA
Location:  39.3995°N, 76.9748°W
Report Text: KDMW 222000Z AUTO 00000KT 2 1/2SM DZ SCT029 SCT039 OVC046 01/M02 A3016 RMK AO2
Loading
Personal Weather Stations






























Interactive Weather Map New forecast layout! Learn more

10-Day Weather Forecast

Advertisements
Track Severe Weather on mobile